sensor_id;sensor_type;location;lat;lon;timestamp;pressure;altitude;pressure_sealevel;temperature;humidity
19005;BME280;9635;52.078;8.648;2022-07-05T00:03:02;100831.34;;;15.72;55.03
19005;BME280;9635;52.078;8.648;2022-07-05T00:08:05;100830.41;;;15.53;55.82
19005;BME280;9635;52.078;8.648;2022-07-05T00:13:10;100836.38;;;15.27;56.39
19005;BME280;9635;52.078;8.648;2022-07-05T00:18:14;100839.63;;;15.60;56.23
19005;BME280;9635;52.078;8.648;2022-07-05T00:23:17;100840.16;;;15.74;56.07
19005;BME280;9635;52.078;8.648;2022-07-05T00:28:21;100846.22;;;15.29;56.50
19005;BME280;9635;52.078;8.648;2022-07-05T00:33:24;100840.25;;;15.15;56.45
19005;BME280;9635;52.078;8.648;2022-07-05T00:38:27;100834.56;;;15.09;56.63
19005;BME280;9635;52.078;8.648;2022-07-05T00:43:32;100843.94;;;15.14;56.65
19005;BME280;9635;52.078;8.648;2022-07-05T00:48:35;100838.69;;;15.22;56.49
19005;BME280;9635;52.078;8.648;2022-07-05T00:53:38;100840.66;;;15.01;57.69
19005;BME280;9635;52.078;8.648;2022-07-05T00:58:42;100849.06;;;15.17;57.34
19005;BME280;9635;52.078;8.648;2022-07-05T01:03:45;100852.75;;;15.26;57.12
19005;BME280;9635;52.078;8.648;2022-07-05T01:08:49;100850.78;;;15.28;56.70
19005;BME280;9635;52.078;8.648;2022-07-05T01:13:54;100851.63;;;15.19;56.55
19005;BME280;9635;52.078;8.648;2022-07-05T01:18:58;100853.31;;;15.30;56.37
19005;BME280;9635;52.078;8.648;2022-07-05T01:24:03;100858.31;;;15.05;57.11
19005;BME280;9635;52.078;8.648;2022-07-05T01:29:07;100850.56;;;14.52;58.42
19005;BME280;9635;52.078;8.648;2022-07-05T01:34:11;100837.69;;;14.85;57.18
19005;BME280;9635;52.078;8.648;2022-07-05T01:39:16;100848.91;;;14.70;57.89
19005;BME280;9635;52.078;8.648;2022-07-05T01:44:19;100851.47;;;14.72;57.60
19005;BME280;9635;52.078;8.648;2022-07-05T01:49:21;100856.44;;;14.86;56.93
19005;BME280;9635;52.078;8.648;2022-07-05T01:54:27;100849.22;;;15.06;56.79
19005;BME280;9635;52.078;8.648;2022-07-05T01:59:32;100853.03;;;14.74;57.22
19005;BME280;9635;52.078;8.648;2022-07-05T02:04:36;100848.78;;;14.91;57.84
19005;BME280;9635;52.078;8.648;2022-07-05T02:16:12;100855.63;;;14.95;57.99
19005;BME280;9635;52.078;8.648;2022-07-05T02:21:16;100841.09;;;15.16;57.50
19005;BME280;9635;52.078;8.648;2022-07-05T02:26:21;100858.19;;;15.26;57.63
19005;BME280;9635;52.078;8.648;2022-07-05T02:31:26;100857.03;;;15.29;57.28
19005;BME280;9635;52.078;8.648;2022-07-05T02:36:30;100855.03;;;15.21;57.65
19005;BME280;9635;52.078;8.648;2022-07-05T02:41:34;100855.22;;;15.19;57.65
19005;BME280;9635;52.078;8.648;2022-07-05T02:53:25;100856.03;;;15.30;57.48
19005;BME280;9635;52.078;8.648;2022-07-05T02:58:28;100855.31;;;15.27;57.88
19005;BME280;9635;52.078;8.648;2022-07-05T03:03:32;100861.75;;;15.07;58.80
19005;BME280;9635;52.078;8.648;2022-07-05T03:08:37;100864.44;;;15.07;58.83
19005;BME280;9635;52.078;8.648;2022-07-05T03:13:40;100858.88;;;15.18;59.01
19005;BME280;9635;52.078;8.648;2022-07-05T03:18:44;100871.84;;;15.54;58.51
19005;BME280;9635;52.078;8.648;2022-07-05T03:23:49;100873.88;;;15.42;58.28
19005;BME280;9635;52.078;8.648;2022-07-05T03:28:53;100870.00;;;15.54;58.03
19005;BME280;9635;52.078;8.648;2022-07-05T03:33:56;100885.84;;;15.39;57.96
19005;BME280;9635;52.078;8.648;2022-07-05T03:39:00;100879.97;;;15.44;57.82
19005;BME280;9635;52.078;8.648;2022-07-05T03:44:04;100884.13;;;15.48;58.53
19005;BME280;9635;52.078;8.648;2022-07-05T03:49:09;100880.41;;;15.59;57.93
19005;BME280;9635;52.078;8.648;2022-07-05T03:54:13;100882.94;;;15.60;58.08
19005;BME280;9635;52.078;8.648;2022-07-05T03:59:17;100881.81;;;15.73;58.01
19005;BME280;9635;52.078;8.648;2022-07-05T04:04:21;100882.09;;;15.69;58.05
19005;BME280;9635;52.078;8.648;2022-07-05T04:09:26;100903.47;;;15.34;58.78
19005;BME280;9635;52.078;8.648;2022-07-05T04:14:30;100901.75;;;15.33;59.45
19005;BME280;9635;52.078;8.648;2022-07-05T04:19:33;100907.78;;;15.46;59.48
19005;BME280;9635;52.078;8.648;2022-07-05T04:24:37;100906.19;;;15.73;59.05
19005;BME280;9635;52.078;8.648;2022-07-05T04:29:55;100901.84;;;15.99;58.39
19005;BME280;9635;52.078;8.648;2022-07-05T04:34:59;100904.81;;;16.06;57.63
19005;BME280;9635;52.078;8.648;2022-07-05T04:40:04;100906.34;;;16.18;56.87
19005;BME280;9635;52.078;8.648;2022-07-05T04:45:08;100913.84;;;16.34;55.88
19005;BME280;9635;52.078;8.648;2022-07-05T04:50:13;100907.78;;;16.50;55.82
19005;BME280;9635;52.078;8.648;2022-07-05T04:55:18;100916.00;;;16.40;56.04
19005;BME280;9635;52.078;8.648;2022-07-05T05:00:21;100939.22;;;16.43;56.57
19005;BME280;9635;52.078;8.648;2022-07-05T05:05:24;100932.69;;;16.35;56.61
19005;BME280;9635;52.078;8.648;2022-07-05T05:10:28;100928.97;;;16.36;55.92
19005;BME280;9635;52.078;8.648;2022-07-05T05:15:31;100932.28;;;16.30;55.63
19005;BME280;9635;52.078;8.648;2022-07-05T05:20:34;100936.78;;;16.02;56.95
19005;BME280;9635;52.078;8.648;2022-07-05T05:25:42;100932.16;;;16.12;57.64
19005;BME280;9635;52.078;8.648;2022-07-05T05:30:46;100934.44;;;16.27;58.09
19005;BME280;9635;52.078;8.648;2022-07-05T05:35:49;100943.16;;;16.58;57.18
19005;BME280;9635;52.078;8.648;2022-07-05T05:40:53;100944.19;;;16.47;58.06
19005;BME280;9635;52.078;8.648;2022-07-05T05:45:56;100951.34;;;16.48;57.07
19005;BME280;9635;52.078;8.648;2022-07-05T05:50:59;100953.19;;;16.75;56.93
19005;BME280;9635;52.078;8.648;2022-07-05T05:56:04;100966.28;;;17.08;56.25
19005;BME280;9635;52.078;8.648;2022-07-05T06:01:07;100967.31;;;16.51;56.41
19005;BME280;9635;52.078;8.648;2022-07-05T06:06:10;100972.94;;;16.95;55.79
19005;BME280;9635;52.078;8.648;2022-07-05T06:11:14;100978.53;;;17.39;55.64
19005;BME280;9635;52.078;8.648;2022-07-05T06:16:17;100980.53;;;17.73;55.66
19005;BME280;9635;52.078;8.648;2022-07-05T06:21:20;100979.34;;;17.93;54.25
19005;BME280;9635;52.078;8.648;2022-07-05T06:26:25;100981.78;;;17.97;53.92
19005;BME280;9635;52.078;8.648;2022-07-05T06:31:28;100993.66;;;17.60;55.13
19005;BME280;9635;52.078;8.648;2022-07-05T06:36:31;100995.16;;;17.72;54.13
19005;BME280;9635;52.078;8.648;2022-07-05T06:41:35;100982.72;;;17.69;53.71
19005;BME280;9635;52.078;8.648;2022-07-05T06:46:38;100984.63;;;18.13;52.29
19005;BME280;9635;52.078;8.648;2022-07-05T06:51:41;100988.00;;;18.33;50.83
19005;BME280;9635;52.078;8.648;2022-07-05T06:56:46;100984.75;;;18.90;50.33
19005;BME280;9635;52.078;8.648;2022-07-05T07:01:49;100987.09;;;18.85;50.53
19005;BME280;9635;52.078;8.648;2022-07-05T07:07:12;100992.16;;;18.53;49.95
19005;BME280;9635;52.078;8.648;2022-07-05T07:12:31;100981.22;;;18.71;48.59
19005;BME280;9635;52.078;8.648;2022-07-05T07:17:34;100993.13;;;19.13;47.11
19005;BME280;9635;52.078;8.648;2022-07-05T07:22:37;100992.44;;;19.94;44.96
19005;BME280;9635;52.078;8.648;2022-07-05T07:27:46;100984.38;;;22.13;41.71
19005;BME280;9635;52.078;8.648;2022-07-05T07:32:48;100976.19;;;25.00;36.21
19005;BME280;9635;52.078;8.648;2022-07-05T07:37:51;100992.28;;;25.71;31.84
19005;BME280;9635;52.078;8.648;2022-07-05T07:42:56;101000.38;;;23.49;33.48
19005;BME280;9635;52.078;8.648;2022-07-05T07:47:58;101001.03;;;23.00;33.06
19005;BME280;9635;52.078;8.648;2022-07-05T07:53:01;100998.28;;;25.20;33.07
19005;BME280;9635;52.078;8.648;2022-07-05T07:58:05;100990.16;;;26.00;30.89
19005;BME280;9635;52.078;8.648;2022-07-05T08:03:08;100993.97;;;23.78;33.44
19005;BME280;9635;52.078;8.648;2022-07-05T08:08:11;100997.06;;;23.75;34.06
19005;BME280;9635;52.078;8.648;2022-07-05T08:13:16;100998.50;;;23.71;33.65
19005;BME280;9635;52.078;8.648;2022-07-05T08:18:18;100990.78;;;23.38;33.92
19005;BME280;9635;52.078;8.648;2022-07-05T08:23:39;100989.84;;;23.89;33.05
19005;BME280;9635;52.078;8.648;2022-07-05T08:28:43;100988.78;;;24.46;34.43
19005;BME280;9635;52.078;8.648;2022-07-05T08:34:07;100984.13;;;23.69;34.31
19005;BME280;9635;52.078;8.648;2022-07-05T08:39:10;100988.84;;;22.28;36.37
19005;BME280;9635;52.078;8.648;2022-07-05T08:44:15;100980.22;;;22.69;36.60
19005;BME280;9635;52.078;8.648;2022-07-05T08:49:21;100982.81;;;23.65;35.59
19005;BME280;9635;52.078;8.648;2022-07-05T08:54:25;100984.03;;;23.05;36.28
19005;BME280;9635;52.078;8.648;2022-07-05T08:59:29;100997.13;;;21.59;36.13
19005;BME280;9635;52.078;8.648;2022-07-05T09:04:35;101002.88;;;21.41;36.15
19005;BME280;9635;52.078;8.648;2022-07-05T09:09:39;100996.81;;;21.54;35.83
19005;BME280;9635;52.078;8.648;2022-07-05T09:14:47;100992.72;;;22.19;34.48
19005;BME280;9635;52.078;8.648;2022-07-05T09:20:07;100983.34;;;23.17;33.94
19005;BME280;9635;52.078;8.648;2022-07-05T09:25:16;100988.94;;;23.24;34.20
19005;BME280;9635;52.078;8.648;2022-07-05T09:30:30;100988.63;;;24.54;31.12
19005;BME280;9635;52.078;8.648;2022-07-05T09:35:33;100985.44;;;24.51;32.08
19005;BME280;9635;52.078;8.648;2022-07-05T09:40:46;100992.84;;;23.36;33.37
19005;BME280;9635;52.078;8.648;2022-07-05T09:45:52;100993.66;;;21.88;34.25
19005;BME280;9635;52.078;8.648;2022-07-05T09:51:04;100989.84;;;22.13;34.76
19005;BME280;9635;52.078;8.648;2022-07-05T09:56:27;100984.41;;;23.16;33.90
19005;BME280;9635;52.078;8.648;2022-07-05T10:01:33;100992.44;;;23.03;33.27
19005;BME280;9635;52.078;8.648;2022-07-05T10:06:38;100997.75;;;22.90;33.34
19005;BME280;9635;52.078;8.648;2022-07-05T10:11:42;100999.81;;;21.13;36.67
19005;BME280;9635;52.078;8.648;2022-07-05T10:16:52;100994.03;;;21.85;34.84
19005;BME280;9635;52.078;8.648;2022-07-05T10:21:59;100996.75;;;22.46;33.99
19005;BME280;9635;52.078;8.648;2022-07-05T10:27:20;100987.16;;;23.02;33.84
19005;BME280;9635;52.078;8.648;2022-07-05T10:32:28;100980.13;;;22.63;34.46
19005;BME280;9635;52.078;8.648;2022-07-05T10:37:32;100981.41;;;23.11;33.05
19005;BME280;9635;52.078;8.648;2022-07-05T10:42:40;100984.97;;;22.38;34.77
19005;BME280;9635;52.078;8.648;2022-07-05T10:48:14;100978.22;;;23.87;32.09
19005;BME280;9635;52.078;8.648;2022-07-05T10:53:19;100975.88;;;22.07;34.74
19005;BME280;9635;52.078;8.648;2022-07-05T10:58:30;100974.59;;;22.92;33.50
19005;BME280;9635;52.078;8.648;2022-07-05T11:03:36;100969.94;;;24.08;32.36
19005;BME280;9635;52.078;8.648;2022-07-05T11:09:13;100965.31;;;23.44;31.86
19005;BME280;9635;52.078;8.648;2022-07-05T11:14:35;100966.69;;;22.68;33.59
19005;BME280;9635;52.078;8.648;2022-07-05T11:20:03;100967.63;;;24.12;32.97
19005;BME280;9635;52.078;8.648;2022-07-05T11:25:07;100962.44;;;26.08;30.38
19005;BME280;9635;52.078;8.648;2022-07-05T11:30:21;100972.53;;;24.17;33.04
19005;BME280;9635;52.078;8.648;2022-07-05T11:35:32;100971.84;;;24.08;32.46
19005;BME280;9635;52.078;8.648;2022-07-05T11:40:36;100963.94;;;25.97;31.52
19005;BME280;9635;52.078;8.648;2022-07-05T11:45:40;100959.19;;;25.38;30.86
19005;BME280;9635;52.078;8.648;2022-07-05T11:50:44;100960.59;;;24.31;32.40
19005;BME280;9635;52.078;8.648;2022-07-05T11:55:53;100949.34;;;25.70;30.31
19005;BME280;9635;52.078;8.648;2022-07-05T12:00:56;100937.41;;;27.01;28.32
19005;BME280;9635;52.078;8.648;2022-07-05T12:06:11;100937.81;;;25.33;30.79
19005;BME280;9635;52.078;8.648;2022-07-05T12:11:15;100958.97;;;25.39;29.67
19005;BME280;9635;52.078;8.648;2022-07-05T12:16:36;100929.31;;;26.61;28.52
19005;BME280;9635;52.078;8.648;2022-07-05T12:21:52;100926.03;;;25.99;29.25
19005;BME280;9635;52.078;8.648;2022-07-05T12:26:55;100932.09;;;25.22;30.60
19005;BME280;9635;52.078;8.648;2022-07-05T12:31:59;100921.97;;;27.32;28.72
19005;BME280;9635;52.078;8.648;2022-07-05T12:37:05;100915.88;;;29.15;26.75
19005;BME280;9635;52.078;8.648;2022-07-05T12:42:07;100931.69;;;25.25;29.31
19005;BME280;9635;52.078;8.648;2022-07-05T12:47:10;100924.09;;;26.26;28.34
19005;BME280;9635;52.078;8.648;2022-07-05T12:52:14;100911.44;;;26.84;28.73
19005;BME280;9635;52.078;8.648;2022-07-05T12:57:18;100920.56;;;26.71;28.88
19005;BME280;9635;52.078;8.648;2022-07-05T13:02:39;100936.41;;;26.31;29.82
19005;BME280;9635;52.078;8.648;2022-07-05T13:07:44;100941.22;;;24.74;30.77
19005;BME280;9635;52.078;8.648;2022-07-05T13:12:56;100942.75;;;24.90;31.27
19005;BME280;9635;52.078;8.648;2022-07-05T13:17:58;100926.63;;;25.35;30.38
19005;BME280;9635;52.078;8.648;2022-07-05T13:23:03;100923.44;;;24.63;31.85
19005;BME280;9635;52.078;8.648;2022-07-05T13:28:07;100917.06;;;26.44;30.45
19005;BME280;9635;52.078;8.648;2022-07-05T13:33:10;100935.34;;;26.25;29.59
19005;BME280;9635;52.078;8.648;2022-07-05T13:38:14;100919.38;;;27.37;27.80
19005;BME280;9635;52.078;8.648;2022-07-05T13:43:17;100912.38;;;26.51;28.30
19005;BME280;9635;52.078;8.648;2022-07-05T13:48:20;100920.13;;;25.89;29.53
19005;BME280;9635;52.078;8.648;2022-07-05T13:53:24;100908.31;;;27.12;28.15
19005;BME280;9635;52.078;8.648;2022-07-05T13:58:28;100912.09;;;26.72;28.50
19005;BME280;9635;52.078;8.648;2022-07-05T14:03:30;100914.13;;;26.19;28.92
19005;BME280;9635;52.078;8.648;2022-07-05T14:08:35;100913.56;;;25.63;30.54
19005;BME280;9635;52.078;8.648;2022-07-05T14:13:38;100898.69;;;26.31;28.75
19005;BME280;9635;52.078;8.648;2022-07-05T14:18:41;100909.50;;;24.30;31.11
19005;BME280;9635;52.078;8.648;2022-07-05T14:23:46;100901.94;;;24.80;30.81
19005;BME280;9635;52.078;8.648;2022-07-05T14:28:49;100892.66;;;26.54;30.20
19005;BME280;9635;52.078;8.648;2022-07-05T14:33:51;100887.81;;;27.65;29.18
19005;BME280;9635;52.078;8.648;2022-07-05T14:38:56;100881.97;;;29.62;25.94
19005;BME280;9635;52.078;8.648;2022-07-05T14:44:02;100885.81;;;29.61;26.02
19005;BME280;9635;52.078;8.648;2022-07-05T14:49:05;100878.22;;;27.92;26.47
19005;BME280;9635;52.078;8.648;2022-07-05T14:54:09;100886.66;;;25.99;28.70
19005;BME280;9635;52.078;8.648;2022-07-05T14:59:12;100894.47;;;25.22;30.32
19005;BME280;9635;52.078;8.648;2022-07-05T15:04:15;100873.44;;;25.01;31.47
19005;BME280;9635;52.078;8.648;2022-07-05T15:09:19;100874.16;;;25.23;30.95
19005;BME280;9635;52.078;8.648;2022-07-05T15:14:22;100875.88;;;25.51;30.73
19005;BME280;9635;52.078;8.648;2022-07-05T15:19:25;100867.44;;;24.29;31.88
19005;BME280;9635;52.078;8.648;2022-07-05T15:24:30;100871.00;;;24.23;31.82
19005;BME280;9635;52.078;8.648;2022-07-05T15:29:33;100869.81;;;24.74;30.90
19005;BME280;9635;52.078;8.648;2022-07-05T15:34:37;100854.72;;;25.84;30.31
19005;BME280;9635;52.078;8.648;2022-07-05T15:39:41;100852.03;;;24.76;30.36
19005;BME280;9635;52.078;8.648;2022-07-05T15:44:44;100859.84;;;24.66;31.44
19005;BME280;9635;52.078;8.648;2022-07-05T15:50:00;100838.63;;;26.98;28.84
19005;BME280;9635;52.078;8.648;2022-07-05T15:55:06;100860.69;;;24.73;30.21
19005;BME280;9635;52.078;8.648;2022-07-05T16:00:09;100850.97;;;23.88;31.64
19005;BME280;9635;52.078;8.648;2022-07-05T16:05:12;100858.06;;;23.54;32.75
19005;BME280;9635;52.078;8.648;2022-07-05T16:10:17;100857.00;;;24.46;32.69
19005;BME280;9635;52.078;8.648;2022-07-05T16:15:37;100851.97;;;25.25;31.47
19005;BME280;9635;52.078;8.648;2022-07-05T16:20:58;100849.84;;;25.40;30.66
19005;BME280;9635;52.078;8.648;2022-07-05T16:26:12;100856.22;;;26.52;29.90
19005;BME280;9635;52.078;8.648;2022-07-05T16:31:15;100854.16;;;27.74;28.57
19005;BME280;9635;52.078;8.648;2022-07-05T16:36:20;100853.56;;;26.39;30.68
19005;BME280;9635;52.078;8.648;2022-07-05T16:41:24;100870.75;;;25.08;33.04
19005;BME280;9635;52.078;8.648;2022-07-05T16:46:27;100867.97;;;24.46;34.77
19005;BME280;9635;52.078;8.648;2022-07-05T16:51:30;100867.34;;;24.44;35.12
19005;BME280;9635;52.078;8.648;2022-07-05T16:56:34;100864.34;;;24.39;35.81
19005;BME280;9635;52.078;8.648;2022-07-05T17:01:37;100870.47;;;24.83;35.92
19005;BME280;9635;52.078;8.648;2022-07-05T17:06:40;100863.97;;;28.69;30.91
19005;BME280;9635;52.078;8.648;2022-07-05T17:11:44;100859.09;;;30.95;27.94
19005;BME280;9635;52.078;8.648;2022-07-05T17:16:47;100875.13;;;28.25;29.72
19005;BME280;9635;52.078;8.648;2022-07-05T17:21:50;100883.97;;;24.84;34.51
19005;BME280;9635;52.078;8.648;2022-07-05T17:26:54;100885.75;;;25.05;35.19
19005;BME280;9635;52.078;8.648;2022-07-05T17:31:58;100883.44;;;26.15;33.31
19005;BME280;9635;52.078;8.648;2022-07-05T17:37:01;100895.69;;;26.33;32.83
19005;BME280;9635;52.078;8.648;2022-07-05T17:42:05;100898.28;;;24.25;35.87
19005;BME280;9635;52.078;8.648;2022-07-05T17:47:08;100903.53;;;23.20;38.22
19005;BME280;9635;52.078;8.648;2022-07-05T17:52:13;100910.97;;;23.27;38.36
19005;BME280;9635;52.078;8.648;2022-07-05T17:57:17;100916.09;;;22.49;40.32
19005;BME280;9635;52.078;8.648;2022-07-05T18:02:20;100927.44;;;22.31;40.05
19005;BME280;9635;52.078;8.648;2022-07-05T18:07:23;100923.59;;;21.87;40.87
19005;BME280;9635;52.078;8.648;2022-07-05T18:12:27;100924.28;;;21.66;41.36
19005;BME280;9635;52.078;8.648;2022-07-05T18:17:35;100942.94;;;21.40;41.66
19005;BME280;9635;52.078;8.648;2022-07-05T18:22:38;100935.88;;;21.22;41.70
19005;BME280;9635;52.078;8.648;2022-07-05T18:27:42;100928.72;;;21.21;41.33
19005;BME280;9635;52.078;8.648;2022-07-05T18:32:45;100932.94;;;21.32;41.35
19005;BME280;9635;52.078;8.648;2022-07-05T18:37:48;100940.66;;;20.58;42.88
19005;BME280;9635;52.078;8.648;2022-07-05T18:42:52;100940.44;;;20.60;42.67
19005;BME280;9635;52.078;8.648;2022-07-05T18:47:55;100941.19;;;20.45;42.77
19005;BME280;9635;52.078;8.648;2022-07-05T18:52:57;100946.94;;;20.59;42.45
19005;BME280;9635;52.078;8.648;2022-07-05T18:58:02;100946.00;;;20.43;42.80
19005;BME280;9635;52.078;8.648;2022-07-05T19:03:05;100961.28;;;20.61;42.82
19005;BME280;9635;52.078;8.648;2022-07-05T19:08:08;100972.13;;;20.77;42.80
19005;BME280;9635;52.078;8.648;2022-07-05T19:13:30;100966.81;;;20.84;42.93
19005;BME280;9635;52.078;8.648;2022-07-05T19:18:48;100967.22;;;20.64;43.18
19005;BME280;9635;52.078;8.648;2022-07-05T19:23:51;100966.59;;;20.46;43.70
19005;BME280;9635;52.078;8.648;2022-07-05T19:28:55;100970.91;;;20.32;44.29
19005;BME280;9635;52.078;8.648;2022-07-05T19:33:58;100984.25;;;20.02;44.78
19005;BME280;9635;52.078;8.648;2022-07-05T19:39:01;100986.78;;;19.63;45.69
19005;BME280;9635;52.078;8.648;2022-07-05T19:44:06;100980.63;;;19.44;46.23
19005;BME280;9635;52.078;8.648;2022-07-05T19:49:09;100986.91;;;19.37;46.60
19005;BME280;9635;52.078;8.648;2022-07-05T19:54:12;100992.00;;;19.32;47.02
19005;BME280;9635;52.078;8.648;2022-07-05T19:59:16;101003.56;;;19.26;47.48
19005;BME280;9635;52.078;8.648;2022-07-05T20:04:19;101002.03;;;19.23;47.62
19005;BME280;9635;52.078;8.648;2022-07-05T20:09:22;101009.50;;;19.21;48.06
19005;BME280;9635;52.078;8.648;2022-07-05T20:14:26;101022.72;;;19.08;48.20
19005;BME280;9635;52.078;8.648;2022-07-05T20:19:31;101019.81;;;19.01;48.63
19005;BME280;9635;52.078;8.648;2022-07-05T20:24:34;101027.81;;;19.02;49.00
19005;BME280;9635;52.078;8.648;2022-07-05T20:29:39;101030.72;;;19.01;49.03
19005;BME280;9635;52.078;8.648;2022-07-05T20:34:41;101028.09;;;18.91;49.21
19005;BME280;9635;52.078;8.648;2022-07-05T20:39:44;101038.44;;;18.79;49.64
19005;BME280;9635;52.078;8.648;2022-07-05T20:44:49;101034.13;;;18.77;50.01
19005;BME280;9635;52.078;8.648;2022-07-05T20:49:52;101046.16;;;18.66;50.28
19005;BME280;9635;52.078;8.648;2022-07-05T20:54:55;101049.03;;;18.39;50.52
19005;BME280;9635;52.078;8.648;2022-07-05T21:00:07;101052.72;;;18.29;51.02
19005;BME280;9635;52.078;8.648;2022-07-05T21:05:10;101065.31;;;18.12;51.06
19005;BME280;9635;52.078;8.648;2022-07-05T21:10:13;101064.09;;;18.07;51.82
19005;BME280;9635;52.078;8.648;2022-07-05T21:15:17;101070.69;;;17.86;52.33
19005;BME280;9635;52.078;8.648;2022-07-05T21:20:21;101081.16;;;17.81;52.64
19005;BME280;9635;52.078;8.648;2022-07-05T21:25:24;101091.06;;;17.55;52.47
19005;BME280;9635;52.078;8.648;2022-07-05T21:30:28;101092.75;;;17.38;51.67
19005;BME280;9635;52.078;8.648;2022-07-05T21:35:31;101090.56;;;17.14;52.23
19005;BME280;9635;52.078;8.648;2022-07-05T21:40:33;101093.88;;;17.08;52.46
19005;BME280;9635;52.078;8.648;2022-07-05T21:45:38;101104.78;;;16.98;52.25
19005;BME280;9635;52.078;8.648;2022-07-05T21:50:41;101110.34;;;16.96;52.19
19005;BME280;9635;52.078;8.648;2022-07-05T21:55:43;101126.63;;;16.96;52.19
19005;BME280;9635;52.078;8.648;2022-07-05T22:00:48;101133.75;;;16.97;51.99
19005;BME280;9635;52.078;8.648;2022-07-05T22:06:08;101138.31;;;17.07;52.16
19005;BME280;9635;52.078;8.648;2022-07-05T22:11:11;101134.13;;;17.12;51.65
19005;BME280;9635;52.078;8.648;2022-07-05T22:16:33;101139.28;;;17.06;52.21
19005;BME280;9635;52.078;8.648;2022-07-05T22:21:36;101145.03;;;17.02;52.36
19005;BME280;9635;52.078;8.648;2022-07-05T22:26:39;101139.59;;;17.02;52.08
19005;BME280;9635;52.078;8.648;2022-07-05T22:31:43;101139.66;;;16.93;52.34
19005;BME280;9635;52.078;8.648;2022-07-05T22:36:46;101139.91;;;16.99;51.97
19005;BME280;9635;52.078;8.648;2022-07-05T22:41:49;101133.47;;;17.00;51.99
19005;BME280;9635;52.078;8.648;2022-07-05T22:46:53;101142.13;;;16.76;52.71
19005;BME280;9635;52.078;8.648;2022-07-05T22:51:56;101134.81;;;16.67;53.03
19005;BME280;9635;52.078;8.648;2022-07-05T22:56:59;101138.56;;;16.76;53.36
19005;BME280;9635;52.078;8.648;2022-07-05T23:02:03;101142.25;;;16.75;53.03
19005;BME280;9635;52.078;8.648;2022-07-05T23:07:06;101150.09;;;16.78;53.21
19005;BME280;9635;52.078;8.648;2022-07-05T23:12:09;101140.84;;;16.61;53.37
19005;BME280;9635;52.078;8.648;2022-07-05T23:17:13;101143.56;;;16.71;53.83
19005;BME280;9635;52.078;8.648;2022-07-05T23:22:16;101144.41;;;16.62;53.68
19005;BME280;9635;52.078;8.648;2022-07-05T23:27:18;101146.97;;;16.14;54.17
19005;BME280;9635;52.078;8.648;2022-07-05T23:32:23;101148.72;;;16.15;54.40
19005;BME280;9635;52.078;8.648;2022-07-05T23:37:26;101154.81;;;15.98;55.14
19005;BME280;9635;52.078;8.648;2022-07-05T23:42:29;101144.72;;;16.10;54.89
19005;BME280;9635;52.078;8.648;2022-07-05T23:47:33;101139.16;;;16.11;54.98
19005;BME280;9635;52.078;8.648;2022-07-05T23:52:36;101145.56;;;16.10;54.89
19005;BME280;9635;52.078;8.648;2022-07-05T23:57:39;101147.09;;;15.84;55.71
